SVA1020 OEJN-OERK
Flight info
| Callsign | SVA1020 |
|---|---|
| Flight time | 1h 9m |
| Altitude | 37000 |
| Route | EGREP T532 ORDEM |
| Aircraft | A320/M-SDE2E3FGHIRWY/L |
Departure
| Time | 2026-04-30 11:50 |
|---|---|
| Airport | King Abdulaziz International Airport (OEJN) |
Arrival
| Time | 2026-04-30 12:59 |
|---|---|
| Airport | King Khalid International Airport (OERK) |
| Time | Latitude | Longitude | Altitude | Speed | Heading |
|---|---|---|---|---|---|
| 2026-04-30 11:10 | 21.66498 | 39.17305 | 36 ft | 0 kts | 233° |
| 2026-04-30 11:39 | 21.66507 | 39.17318 | 36 ft | 2 kts | 227° |
| 2026-04-30 11:39 | 21.66519 | 39.17332 | 36 ft | 2 kts | 227° |
| 2026-04-30 11:39 | 21.66530 | 39.17345 | 36 ft | 2 kts | 227° |
| 2026-04-30 11:39 | 21.66544 | 39.17354 | 34 ft | 2 kts | 184° |
| 2026-04-30 11:40 | 21.66561 | 39.17356 | 36 ft | 2 kts | 173° |
| 2026-04-30 11:40 | 21.66578 | 39.17352 | 35 ft | 2 kts | 158° |
| 2026-04-30 11:40 | 21.66584 | 39.17349 | 35 ft | 0 kts | 158° |
| 2026-04-30 11:44 | 21.66576 | 39.17362 | 35 ft | 5 kts | 115° |
| 2026-04-30 11:44 | 21.66572 | 39.17432 | 36 ft | 13 kts | 76° |
| 2026-04-30 11:44 | 21.66603 | 39.17513 | 36 ft | 11 kts | 71° |
| 2026-04-30 11:45 | 21.66628 | 39.17585 | 34 ft | 10 kts | 69° |
| 2026-04-30 11:45 | 21.66650 | 39.17647 | 36 ft | 8 kts | 69° |
| 2026-04-30 11:45 | 21.66668 | 39.17701 | 36 ft | 7 kts | 70° |
| 2026-04-30 11:45 | 21.66682 | 39.17745 | 36 ft | 6 kts | 70° |
| 2026-04-30 11:46 | 21.66695 | 39.17782 | 36 ft | 5 kts | 70° |
| 2026-04-30 11:46 | 21.66711 | 39.17828 | 36 ft | 6 kts | 70° |
| 2026-04-30 11:46 | 21.66724 | 39.17867 | 36 ft | 5 kts | 69° |
| 2026-04-30 11:46 | 21.66739 | 39.17909 | 36 ft | 9 kts | 69° |
| 2026-04-30 11:47 | 21.66777 | 39.17976 | 35 ft | 11 kts | 32° |
| 2026-04-30 11:47 | 21.66825 | 39.17977 | 37 ft | 0 kts | 341° |
| 2026-04-30 11:48 | 21.66826 | 39.17977 | 37 ft | 1 kts | 341° |
| 2026-04-30 11:49 | 21.66907 | 39.17947 | 37 ft | 36 kts | 340° |
| 2026-04-30 11:49 | 21.67374 | 39.17762 | 33 ft | 104 kts | 340° |
| 2026-04-30 11:49 | 21.68224 | 39.17429 | 29 ft | 155 kts | 340° |
| 2026-04-30 11:49 | 21.69328 | 39.17013 | 366 ft | 175 kts | 338° |
| 2026-04-30 11:50 | 21.70499 | 39.16570 | 989 ft | 183 kts | 338° |
| 2026-04-30 11:50 | 21.71750 | 39.16237 | 1590 ft | 192 kts | 345° |
| 2026-04-30 11:50 | 21.73143 | 39.15985 | 1928 ft | 211 kts | 352° |
| 2026-04-30 11:50 | 21.74637 | 39.16275 | 2307 ft | 236 kts | 27° |
| 2026-04-30 11:51 | 21.75542 | 39.17002 | 2505 ft | 254 kts | 37° |
| 2026-04-30 11:51 | 21.76992 | 39.18276 | 2850 ft | 278 kts | 36° |
| 2026-04-30 11:51 | 21.78573 | 39.19573 | 3174 ft | 302 kts | 34° |
| 2026-04-30 11:51 | 21.80360 | 39.20953 | 3551 ft | 320 kts | 33° |
| 2026-04-30 11:52 | 21.82193 | 39.22307 | 4196 ft | 328 kts | 33° |
| 2026-04-30 11:52 | 21.84068 | 39.23752 | 4853 ft | 336 kts | 38° |
| 2026-04-30 11:52 | 21.85865 | 39.25380 | 5583 ft | 340 kts | 40° |
| 2026-04-30 11:52 | 21.87653 | 39.27070 | 6314 ft | 344 kts | 41° |
| 2026-04-30 11:53 | 21.89445 | 39.28798 | 7024 ft | 348 kts | 41° |
| 2026-04-30 11:53 | 21.91253 | 39.30553 | 7697 ft | 352 kts | 41° |
| 2026-04-30 11:53 | 21.93082 | 39.32328 | 8360 ft | 355 kts | 41° |
| 2026-04-30 11:53 | 21.94932 | 39.34111 | 9002 ft | 359 kts | 41° |
| 2026-04-30 11:54 | 21.96812 | 39.35912 | 9609 ft | 364 kts | 41° |
| 2026-04-30 11:54 | 21.98721 | 39.37732 | 10221 ft | 369 kts | 41° |
| 2026-04-30 11:54 | 22.00658 | 39.39577 | 10824 ft | 374 kts | 41° |
| 2026-04-30 11:54 | 22.02621 | 39.41444 | 11428 ft | 379 kts | 41° |
| 2026-04-30 11:55 | 22.04608 | 39.43340 | 12014 ft | 384 kts | 41° |
| 2026-04-30 11:55 | 22.06618 | 39.45259 | 12610 ft | 389 kts | 41° |
| 2026-04-30 11:55 | 22.08652 | 39.47204 | 13243 ft | 392 kts | 41° |
| 2026-04-30 11:55 | 22.10700 | 39.49164 | 13874 ft | 395 kts | 40° |
| 2026-04-30 11:56 | 22.12762 | 39.51140 | 14475 ft | 398 kts | 40° |
| 2026-04-30 11:56 | 22.14842 | 39.53131 | 15066 ft | 401 kts | 40° |
| 2026-04-30 11:56 | 22.16940 | 39.55137 | 15642 ft | 404 kts | 40° |
| 2026-04-30 11:56 | 22.19048 | 39.57155 | 16217 ft | 407 kts | 39° |
| 2026-04-30 11:57 | 22.21175 | 39.59185 | 16756 ft | 410 kts | 39° |
| 2026-04-30 11:57 | 22.23316 | 39.61233 | 17283 ft | 413 kts | 39° |
| 2026-04-30 11:57 | 22.25479 | 39.63304 | 17734 ft | 419 kts | 39° |
| 2026-04-30 11:57 | 22.27667 | 39.65399 | 18187 ft | 422 kts | 38° |
| 2026-04-30 11:58 | 22.29874 | 39.67513 | 18650 ft | 426 kts | 39° |
| 2026-04-30 11:58 | 22.32101 | 39.69648 | 19069 ft | 430 kts | 39° |
| 2026-04-30 11:58 | 22.34347 | 39.71805 | 19530 ft | 434 kts | 39° |
| 2026-04-30 11:58 | 22.36609 | 39.73980 | 19993 ft | 437 kts | 39° |
| 2026-04-30 11:59 | 22.38893 | 39.76173 | 20415 ft | 441 kts | 39° |
| 2026-04-30 11:59 | 22.41195 | 39.78383 | 20837 ft | 444 kts | 39° |
| 2026-04-30 11:59 | 22.43512 | 39.80613 | 21246 ft | 448 kts | 39° |
| 2026-04-30 11:59 | 22.45845 | 39.82862 | 21656 ft | 451 kts | 39° |
| 2026-04-30 12:00 | 22.48198 | 39.85127 | 22026 ft | 454 kts | 39° |
| 2026-04-30 12:00 | 22.50538 | 39.87364 | 22409 ft | 456 kts | 39° |
| 2026-04-30 12:00 | 22.52958 | 39.89672 | 22765 ft | 460 kts | 39° |
| 2026-04-30 12:00 | 22.55333 | 39.91938 | 23147 ft | 462 kts | 39° |
| 2026-04-30 12:01 | 22.57754 | 39.94244 | 23500 ft | 466 kts | 39° |
| 2026-04-30 12:01 | 22.60194 | 39.96572 | 23845 ft | 469 kts | 39° |
| 2026-04-30 12:01 | 22.62645 | 39.98916 | 24198 ft | 472 kts | 39° |
| 2026-04-30 12:01 | 22.65110 | 40.01275 | 24544 ft | 474 kts | 39° |
| 2026-04-30 12:02 | 22.67593 | 40.03648 | 24828 ft | 478 kts | 39° |
| 2026-04-30 12:02 | 22.70097 | 40.06042 | 25117 ft | 482 kts | 39° |
| 2026-04-30 12:02 | 22.72615 | 40.08454 | 25412 ft | 485 kts | 39° |
| 2026-04-30 12:02 | 22.75147 | 40.10883 | 25715 ft | 488 kts | 39° |
| 2026-04-30 12:03 | 22.77695 | 40.13328 | 25997 ft | 491 kts | 38° |
| 2026-04-30 12:03 | 22.82839 | 40.18259 | 26555 ft | 497 kts | 38° |
| 2026-04-30 12:03 | 22.85434 | 40.20752 | 26826 ft | 499 kts | 38° |
| 2026-04-30 12:04 | 22.88040 | 40.23260 | 27062 ft | 503 kts | 38° |
| 2026-04-30 12:04 | 22.90663 | 40.25785 | 27288 ft | 506 kts | 38° |
| 2026-04-30 12:04 | 22.93299 | 40.28321 | 27523 ft | 508 kts | 38° |
| 2026-04-30 12:04 | 22.95950 | 40.30870 | 27752 ft | 511 kts | 38° |
| 2026-04-30 12:05 | 22.98614 | 40.33433 | 27979 ft | 513 kts | 38° |
| 2026-04-30 12:05 | 23.01292 | 40.36015 | 28202 ft | 516 kts | 38° |
| 2026-04-30 12:05 | 23.03979 | 40.38606 | 28410 ft | 518 kts | 38° |
| 2026-04-30 12:05 | 23.06682 | 40.41212 | 28612 ft | 521 kts | 38° |
| 2026-04-30 12:06 | 23.09401 | 40.43833 | 28821 ft | 523 kts | 37° |
| 2026-04-30 12:06 | 23.12122 | 40.46455 | 29114 ft | 523 kts | 37° |
| 2026-04-30 12:06 | 23.14845 | 40.49084 | 29412 ft | 523 kts | 37° |
| 2026-04-30 12:06 | 23.17567 | 40.51715 | 29697 ft | 524 kts | 37° |
| 2026-04-30 12:07 | 23.20294 | 40.54355 | 29916 ft | 526 kts | 37° |
| 2026-04-30 12:07 | 23.23028 | 40.57006 | 30201 ft | 527 kts | 38° |
| 2026-04-30 12:07 | 23.25594 | 40.59875 | 30460 ft | 532 kts | 47° |
| 2026-04-30 12:07 | 23.27774 | 40.63139 | 30725 ft | 537 kts | 56° |
| 2026-04-30 12:08 | 23.29516 | 40.66743 | 30977 ft | 540 kts | 66° |
| 2026-04-30 12:08 | 23.30875 | 40.70550 | 31269 ft | 541 kts | 69° |
| 2026-04-30 12:08 | 23.32205 | 40.74374 | 31566 ft | 540 kts | 69° |
| 2026-04-30 12:08 | 23.33536 | 40.78197 | 31876 ft | 541 kts | 69° |
| 2026-04-30 12:09 | 23.34866 | 40.82019 | 32164 ft | 540 kts | 69° |
| 2026-04-30 12:09 | 23.36177 | 40.85790 | 32456 ft | 540 kts | 69° |
| 2026-04-30 12:09 | 23.37504 | 40.89610 | 32756 ft | 539 kts | 69° |
| 2026-04-30 12:09 | 23.38827 | 40.93434 | 33028 ft | 540 kts | 69° |
| 2026-04-30 12:10 | 23.40146 | 40.97253 | 33321 ft | 539 kts | 69° |
| 2026-04-30 12:10 | 23.41464 | 41.01077 | 33593 ft | 539 kts | 69° |
| 2026-04-30 12:10 | 23.42780 | 41.04898 | 33864 ft | 539 kts | 69° |
| 2026-04-30 12:10 | 23.44100 | 41.08721 | 34145 ft | 539 kts | 69° |
| 2026-04-30 12:11 | 23.45423 | 41.12539 | 34428 ft | 538 kts | 69° |
| 2026-04-30 12:11 | 23.46742 | 41.16353 | 34715 ft | 537 kts | 69° |
| 2026-04-30 12:11 | 23.48051 | 41.20158 | 35014 ft | 536 kts | 69° |
| 2026-04-30 12:11 | 23.49352 | 41.23959 | 35282 ft | 535 kts | 69° |
| 2026-04-30 12:12 | 23.50648 | 41.27754 | 35554 ft | 534 kts | 69° |
| 2026-04-30 12:12 | 23.51946 | 41.31539 | 35821 ft | 532 kts | 69° |
| 2026-04-30 12:12 | 23.53241 | 41.35313 | 36066 ft | 532 kts | 69° |
| 2026-04-30 12:12 | 23.54534 | 41.39087 | 36313 ft | 531 kts | 69° |
| 2026-04-30 12:13 | 23.55826 | 41.42848 | 36494 ft | 531 kts | 69° |
| 2026-04-30 12:13 | 23.57121 | 41.46618 | 36619 ft | 532 kts | 69° |
| 2026-04-30 12:13 | 23.58419 | 41.50398 | 36746 ft | 534 kts | 69° |
| 2026-04-30 12:13 | 23.59718 | 41.54194 | 36891 ft | 534 kts | 69° |
| 2026-04-30 12:14 | 23.61018 | 41.57998 | 36995 ft | 537 kts | 69° |
| 2026-04-30 12:14 | 23.63627 | 41.65672 | 37001 ft | 542 kts | 69° |
| 2026-04-30 12:15 | 23.66242 | 41.73393 | 36989 ft | 543 kts | 69° |
| 2026-04-30 12:15 | 23.68824 | 41.81147 | 36990 ft | 544 kts | 70° |
| 2026-04-30 12:16 | 23.71276 | 41.88906 | 36989 ft | 545 kts | 70° |
| 2026-04-30 12:16 | 23.73710 | 41.96730 | 36992 ft | 544 kts | 70° |
| 2026-04-30 12:17 | 23.77570 | 42.08385 | 36994 ft | 545 kts | 68° |
| 2026-04-30 12:17 | 23.80292 | 42.16111 | 36995 ft | 545 kts | 68° |
| 2026-04-30 12:18 | 23.82973 | 42.23854 | 36994 ft | 545 kts | 69° |
| 2026-04-30 12:18 | 23.85603 | 42.31626 | 36995 ft | 545 kts | 69° |
| 2026-04-30 12:19 | 23.88222 | 42.39404 | 37001 ft | 546 kts | 69° |
| 2026-04-30 12:19 | 23.90851 | 42.47180 | 37003 ft | 545 kts | 69° |
| 2026-04-30 12:20 | 23.93488 | 42.54950 | 36998 ft | 545 kts | 69° |
| 2026-04-30 12:20 | 23.96111 | 42.62707 | 36992 ft | 543 kts | 69° |
| 2026-04-30 12:21 | 23.98716 | 42.70453 | 36986 ft | 543 kts | 69° |
| 2026-04-30 12:21 | 24.01321 | 42.78194 | 36954 ft | 541 kts | 69° |
| 2026-04-30 12:22 | 24.03909 | 42.85905 | 36961 ft | 546 kts | 69° |
| 2026-04-30 12:22 | 24.06516 | 42.93712 | 36961 ft | 546 kts | 69° |
| 2026-04-30 12:23 | 24.09086 | 43.01528 | 36960 ft | 546 kts | 70° |
| 2026-04-30 12:23 | 24.11651 | 43.09353 | 36953 ft | 546 kts | 70° |
| 2026-04-30 12:24 | 24.14215 | 43.17171 | 36953 ft | 545 kts | 70° |
| 2026-04-30 12:24 | 24.16780 | 43.24981 | 36953 ft | 545 kts | 70° |
| 2026-04-30 12:25 | 24.19329 | 43.32786 | 36953 ft | 544 kts | 70° |
| 2026-04-30 12:25 | 24.21867 | 43.40586 | 36952 ft | 543 kts | 70° |
| 2026-04-30 12:26 | 24.24403 | 43.48378 | 36952 ft | 543 kts | 70° |
| 2026-04-30 12:26 | 24.26935 | 43.56164 | 36955 ft | 543 kts | 70° |
| 2026-04-30 12:27 | 24.29466 | 43.63959 | 36964 ft | 543 kts | 70° |
| 2026-04-30 12:27 | 24.31981 | 43.71760 | 36968 ft | 543 kts | 70° |
| 2026-04-30 12:28 | 24.34498 | 43.79561 | 36972 ft | 542 kts | 70° |
| 2026-04-30 12:28 | 24.37009 | 43.87367 | 36976 ft | 542 kts | 70° |
| 2026-04-30 12:29 | 24.39521 | 43.95169 | 36976 ft | 542 kts | 70° |
| 2026-04-30 12:29 | 24.42028 | 44.02961 | 36968 ft | 541 kts | 71° |
| 2026-04-30 12:30 | 24.44495 | 44.10693 | 36933 ft | 536 kts | 73° |
| 2026-04-30 12:30 | 24.45385 | 44.14617 | 36698 ft | 525 kts | 81° |
| 2026-04-30 12:30 | 24.46058 | 44.18543 | 36449 ft | 522 kts | 81° |
| 2026-04-30 12:31 | 24.46732 | 44.22469 | 36188 ft | 529 kts | 81° |
| 2026-04-30 12:31 | 24.47421 | 44.26456 | 35121 ft | 533 kts | 81° |
| 2026-04-30 12:31 | 24.48117 | 44.30439 | 34267 ft | 526 kts | 81° |
| 2026-04-30 12:31 | 24.48803 | 44.34350 | 33488 ft | 517 kts | 81° |
| 2026-04-30 12:32 | 24.49481 | 44.38233 | 32185 ft | 522 kts | 81° |
| 2026-04-30 12:32 | 24.50157 | 44.42149 | 31092 ft | 521 kts | 80° |
| 2026-04-30 12:32 | 24.50829 | 44.46055 | 29971 ft | 520 kts | 80° |
| 2026-04-30 12:32 | 24.51496 | 44.49935 | 28986 ft | 514 kts | 80° |
| 2026-04-30 12:33 | 24.52156 | 44.53763 | 28093 ft | 505 kts | 80° |
| 2026-04-30 12:33 | 24.52802 | 44.57521 | 27020 ft | 498 kts | 81° |
| 2026-04-30 12:33 | 24.53444 | 44.61274 | 25667 ft | 500 kts | 81° |
| 2026-04-30 12:33 | 24.54081 | 44.65011 | 24219 ft | 498 kts | 81° |
| 2026-04-30 12:34 | 24.54719 | 44.68747 | 22874 ft | 495 kts | 81° |
| 2026-04-30 12:34 | 24.55349 | 44.72424 | 21750 ft | 485 kts | 81° |
| 2026-04-30 12:34 | 24.55968 | 44.76026 | 20649 ft | 475 kts | 81° |
| 2026-04-30 12:34 | 24.56572 | 44.79563 | 19662 ft | 468 kts | 81° |
| 2026-04-30 12:35 | 24.57169 | 44.83072 | 19217 ft | 467 kts | 81° |
| 2026-04-30 12:35 | 24.57764 | 44.86568 | 19002 ft | 464 kts | 81° |
| 2026-04-30 12:35 | 24.58356 | 44.90045 | 18931 ft | 463 kts | 81° |
| 2026-04-30 12:35 | 24.58946 | 44.93523 | 18727 ft | 463 kts | 81° |
| 2026-04-30 12:36 | 24.59531 | 44.96989 | 18469 ft | 460 kts | 81° |
| 2026-04-30 12:36 | 24.59915 | 44.99272 | 18299 ft | 458 kts | 81° |
| 2026-04-30 12:36 | 24.60684 | 45.03862 | 17962 ft | 455 kts | 81° |
| 2026-04-30 12:36 | 24.61256 | 45.07280 | 17732 ft | 454 kts | 81° |
| 2026-04-30 12:37 | 24.61827 | 45.10687 | 17484 ft | 452 kts | 81° |
| 2026-04-30 12:37 | 24.62396 | 45.14076 | 17225 ft | 450 kts | 81° |
| 2026-04-30 12:37 | 24.62963 | 45.17451 | 16983 ft | 448 kts | 81° |
| 2026-04-30 12:37 | 24.63527 | 45.20808 | 16763 ft | 446 kts | 81° |
| 2026-04-30 12:38 | 24.64085 | 45.24141 | 16370 ft | 440 kts | 81° |
| 2026-04-30 12:38 | 24.64635 | 45.27421 | 15914 ft | 433 kts | 81° |
| 2026-04-30 12:38 | 24.65175 | 45.30653 | 15387 ft | 428 kts | 81° |
| 2026-04-30 12:38 | 24.65707 | 45.33855 | 14859 ft | 423 kts | 81° |
| 2026-04-30 12:39 | 24.66235 | 45.37023 | 14321 ft | 420 kts | 81° |
| 2026-04-30 12:39 | 24.66758 | 45.40164 | 13759 ft | 416 kts | 81° |
| 2026-04-30 12:39 | 24.67273 | 45.43278 | 13228 ft | 412 kts | 81° |
| 2026-04-30 12:39 | 24.67609 | 45.45321 | 12858 ft | 409 kts | 81° |
| 2026-04-30 12:40 | 24.68151 | 45.48378 | 12303 ft | 406 kts | 76° |
| 2026-04-30 12:40 | 24.69251 | 45.51212 | 11755 ft | 402 kts | 58° |
| 2026-04-30 12:40 | 24.70765 | 45.53779 | 11190 ft | 398 kts | 56° |
| 2026-04-30 12:40 | 24.72272 | 45.56302 | 10716 ft | 392 kts | 57° |
| 2026-04-30 12:41 | 24.73758 | 45.58784 | 10205 ft | 385 kts | 57° |
| 2026-04-30 12:41 | 24.75220 | 45.61213 | 9848 ft | 374 kts | 57° |
| 2026-04-30 12:41 | 24.76623 | 45.63541 | 9721 ft | 357 kts | 57° |
| 2026-04-30 12:41 | 24.77964 | 45.65774 | 9605 ft | 342 kts | 57° |
| 2026-04-30 12:42 | 24.79245 | 45.67910 | 9497 ft | 328 kts | 57° |
| 2026-04-30 12:42 | 24.80475 | 45.69966 | 9378 ft | 315 kts | 57° |
| 2026-04-30 12:42 | 24.81657 | 45.71941 | 9245 ft | 303 kts | 57° |
| 2026-04-30 12:42 | 24.83179 | 45.74481 | 9079 ft | 293 kts | 57° |
| 2026-04-30 12:43 | 24.83920 | 45.75718 | 9001 ft | 292 kts | 57° |
| 2026-04-30 12:43 | 24.85032 | 45.77577 | 8989 ft | 290 kts | 57° |
| 2026-04-30 12:43 | 24.86138 | 45.79435 | 8995 ft | 290 kts | 58° |
| 2026-04-30 12:43 | 24.87242 | 45.81296 | 8999 ft | 290 kts | 57° |
| 2026-04-30 12:44 | 24.88331 | 45.83124 | 8909 ft | 279 kts | 57° |
| 2026-04-30 12:44 | 24.89378 | 45.84875 | 8764 ft | 270 kts | 57° |
| 2026-04-30 12:44 | 24.90398 | 45.86581 | 8489 ft | 265 kts | 57° |
| 2026-04-30 12:44 | 24.91405 | 45.88265 | 8159 ft | 262 kts | 57° |
| 2026-04-30 12:45 | 24.92401 | 45.89936 | 7797 ft | 261 kts | 58° |
| 2026-04-30 12:45 | 24.93392 | 45.91603 | 7439 ft | 259 kts | 57° |
| 2026-04-30 12:45 | 24.94378 | 45.93258 | 7097 ft | 258 kts | 58° |
| 2026-04-30 12:45 | 24.95354 | 45.94901 | 6999 ft | 255 kts | 58° |
| 2026-04-30 12:46 | 24.96330 | 45.96546 | 7010 ft | 257 kts | 57° |
| 2026-04-30 12:46 | 24.97314 | 45.98197 | 7001 ft | 257 kts | 57° |
| 2026-04-30 12:46 | 24.98283 | 45.99823 | 7005 ft | 257 kts | 58° |
| 2026-04-30 12:46 | 24.99278 | 46.01493 | 7004 ft | 258 kts | 57° |
| 2026-04-30 12:47 | 25.00244 | 46.03119 | 7013 ft | 256 kts | 57° |
| 2026-04-30 12:47 | 25.01215 | 46.04753 | 6879 ft | 254 kts | 57° |
| 2026-04-30 12:47 | 25.02184 | 46.06385 | 6522 ft | 254 kts | 57° |
| 2026-04-30 12:47 | 25.03149 | 46.08008 | 6177 ft | 252 kts | 57° |
| 2026-04-30 12:48 | 25.04117 | 46.09638 | 5831 ft | 250 kts | 57° |
| 2026-04-30 12:48 | 25.05053 | 46.11214 | 5450 ft | 249 kts | 57° |
| 2026-04-30 12:48 | 25.05991 | 46.12813 | 5089 ft | 247 kts | 59° |
| 2026-04-30 12:48 | 25.06687 | 46.14532 | 5006 ft | 246 kts | 71° |
| 2026-04-30 12:49 | 25.07192 | 46.16339 | 5007 ft | 247 kts | 73° |
| 2026-04-30 12:49 | 25.07678 | 46.18159 | 5006 ft | 247 kts | 73° |
| 2026-04-30 12:49 | 25.08159 | 46.19979 | 5005 ft | 248 kts | 73° |
| 2026-04-30 12:49 | 25.08644 | 46.21802 | 5002 ft | 247 kts | 73° |
| 2026-04-30 12:50 | 25.09129 | 46.23621 | 5003 ft | 247 kts | 73° |
| 2026-04-30 12:50 | 25.09612 | 46.25440 | 5004 ft | 247 kts | 73° |
| 2026-04-30 12:50 | 25.10093 | 46.27258 | 5004 ft | 247 kts | 73° |
| 2026-04-30 12:50 | 25.10576 | 46.29081 | 5004 ft | 248 kts | 73° |
| 2026-04-30 12:51 | 25.11057 | 46.30900 | 5004 ft | 247 kts | 73° |
| 2026-04-30 12:51 | 25.11538 | 46.32717 | 5003 ft | 247 kts | 73° |
| 2026-04-30 12:51 | 25.12020 | 46.34536 | 5003 ft | 247 kts | 73° |
| 2026-04-30 12:51 | 25.12500 | 46.36358 | 5005 ft | 247 kts | 73° |
| 2026-04-30 12:52 | 25.12981 | 46.38183 | 5008 ft | 248 kts | 73° |
| 2026-04-30 12:52 | 25.13461 | 46.40004 | 5002 ft | 244 kts | 73° |
| 2026-04-30 12:52 | 25.13917 | 46.41738 | 4999 ft | 227 kts | 73° |
| 2026-04-30 12:52 | 25.14342 | 46.43353 | 5001 ft | 210 kts | 73° |
| 2026-04-30 12:53 | 25.14740 | 46.44871 | 5004 ft | 204 kts | 73° |
| 2026-04-30 12:53 | 25.15132 | 46.46356 | 5005 ft | 204 kts | 73° |
| 2026-04-30 12:53 | 25.15526 | 46.47851 | 5002 ft | 203 kts | 73° |
| 2026-04-30 12:53 | 25.15905 | 46.49361 | 5003 ft | 204 kts | 79° |
| 2026-04-30 12:54 | 25.16011 | 46.50923 | 4997 ft | 205 kts | 99° |
| 2026-04-30 12:54 | 25.15466 | 46.52371 | 5008 ft | 208 kts | 120° |
| 2026-04-30 12:54 | 25.14669 | 46.53701 | 5007 ft | 208 kts | 123° |
| 2026-04-30 12:54 | 25.13837 | 46.55005 | 5013 ft | 208 kts | 123° |
| 2026-04-30 12:55 | 25.12997 | 46.56308 | 5015 ft | 208 kts | 123° |
| 2026-04-30 12:55 | 25.12153 | 46.57609 | 5010 ft | 209 kts | 125° |
| 2026-04-30 12:55 | 25.11044 | 46.58613 | 5101 ft | 208 kts | 156° |
| 2026-04-30 12:55 | 25.09690 | 46.59343 | 4866 ft | 216 kts | 143° |
| 2026-04-30 12:56 | 25.08436 | 46.60256 | 4608 ft | 217 kts | 145° |
| 2026-04-30 12:56 | 25.07137 | 46.61120 | 4320 ft | 218 kts | 147° |
| 2026-04-30 12:56 | 25.05869 | 46.61928 | 4064 ft | 201 kts | 147° |
| 2026-04-30 12:56 | 25.04681 | 46.62680 | 3797 ft | 192 kts | 148° |
| 2026-04-30 12:57 | 25.03543 | 46.63401 | 3544 ft | 185 kts | 148° |
| 2026-04-30 12:57 | 25.02485 | 46.64071 | 3312 ft | 166 kts | 148° |
| 2026-04-30 12:57 | 25.01525 | 46.64680 | 3093 ft | 154 kts | 148° |
| 2026-04-30 12:57 | 25.00610 | 46.65260 | 2889 ft | 150 kts | 148° |
| 2026-04-30 12:58 | 24.99715 | 46.65827 | 2694 ft | 148 kts | 148° |
| 2026-04-30 12:58 | 24.98826 | 46.66390 | 2486 ft | 147 kts | 148° |
| 2026-04-30 12:58 | 24.97944 | 46.66948 | 2249 ft | 145 kts | 149° |
| 2026-04-30 12:58 | 24.97067 | 46.67505 | 2090 ft | 146 kts | 148° |
| 2026-04-30 12:59 | 24.96222 | 46.68051 | 2036 ft | 129 kts | 153° |
| 2026-04-30 12:59 | 24.95628 | 46.68415 | 2033 ft | 44 kts | 150° |
| 2026-04-30 12:59 | 24.95534 | 46.68539 | 2036 ft | 17 kts | 122° |
| 2026-04-30 12:59 | 24.95508 | 46.68584 | 2029 ft | 0 kts | 120° |
| 2026-04-30 13:00 | 24.95501 | 46.68598 | 2034 ft | 2 kts | 120° |
| 2026-04-30 13:00 | 24.95491 | 46.68624 | 2035 ft | 9 kts | 107° |
| 2026-04-30 13:00 | 24.95483 | 46.68698 | 2036 ft | 10 kts | 90° |
| 2026-04-30 13:01 | 24.95502 | 46.68762 | 2029 ft | 8 kts | 54° |
| 2026-04-30 13:01 | 24.95509 | 46.68821 | 2033 ft | 9 kts | 119° |
| 2026-04-30 13:01 | 24.95453 | 46.68870 | 2032 ft | 11 kts | 150° |
| 2026-04-30 13:01 | 24.95389 | 46.68911 | 2036 ft | 11 kts | 149° |